Time;durP1;ratioP1;P1;durP2;ratioP2;P2;SDS_P1;SDS_P2;PMS_P1;PMS_P2;Temp;Humidity;BMP_temperature;BMP_pressure;BME280_temperature;BME280_humidity;BME280_pressure;Samples;Min_cycle;Max_cycle;Signal;HPM_P1;HPM_P2
2023/06/02 00:01:03;;;;;;;0.40;0.40;;;10.20;99.90;;;;;;5067410;28;20076;-74
2023/06/02 00:03:34;;;;;;;0.22;0.22;;;10.20;99.90;;;;;;5067108;28;20048;-74
2023/06/02 00:06:11;;;;;;;0.60;0.60;;;10.20;99.90;;;;;;5068037;28;20370;-74
2023/06/02 00:08:40;;;;;;;0.30;0.30;;;10.20;99.90;;;;;;5051526;28;20382;-74
2023/06/02 00:11:09;;;;;;;0.32;0.32;;;10.10;99.90;;;;;;5067913;28;20086;-74
2023/06/02 00:13:35;;;;;;;0.60;0.60;;;10.10;99.90;;;;;;5052092;28;20045;-74
2023/06/02 00:16:02;;;;;;;0.40;0.40;;;10.10;99.90;;;;;;5068055;28;20050;-74
2023/06/02 00:18:28;;;;;;;0.45;0.45;;;10.10;99.90;;;;;;5051160;28;20048;-74
2023/06/02 00:20:56;;;;;;;0.40;0.40;;;10.10;99.90;;;;;;5067798;28;20040;-74
2023/06/02 00:23:22;;;;;;;0.40;0.40;;;10.10;99.90;;;;;;5070450;28;20090;-74
2023/06/02 00:25:48;;;;;;;0.30;0.30;;;10.10;99.90;;;;;;5080485;28;20063;-74
2023/06/02 00:28:14;;;;;;;0.30;0.30;;;10.10;99.90;;;;;;5054105;28;20044;-73
2023/06/02 00:30:40;;;;;;;0.60;0.60;;;10.10;99.90;;;;;;5038036;28;20048;-74
2023/06/02 00:33:05;;;;;;;0.47;0.47;;;10.10;99.90;;;;;;5071407;28;20052;-74
2023/06/02 00:35:31;;;;;;;0.45;0.45;;;10.10;99.90;;;;;;5034515;28;20051;-74
2023/06/02 00:38:02;;;;;;;0.98;0.98;;;10.00;99.90;;;;;;5077733;28;20048;-74
2023/06/02 00:40:28;;;;;;;0.40;0.40;;;10.00;99.90;;;;;;5054565;28;20049;-74
2023/06/02 00:42:54;;;;;;;0.52;0.52;;;9.90;99.90;;;;;;5080121;28;20039;-74
2023/06/02 00:45:19;;;;;;;0.43;0.43;;;9.90;99.90;;;;;;5058431;28;20033;-74
2023/06/02 00:47:45;;;;;;;0.68;0.68;;;9.90;99.90;;;;;;5037036;28;20166;-74
2023/06/02 00:50:11;;;;;;;0.40;0.40;;;9.90;99.90;;;;;;5070817;28;20070;-74
2023/06/02 00:52:38;;;;;;;0.32;0.32;;;9.80;99.90;;;;;;5070275;28;20041;-74
2023/06/02 00:55:04;;;;;;;0.30;0.30;;;9.80;99.90;;;;;;5070574;28;20051;-74
2023/06/02 00:57:33;;;;;;;;;;;9.80;99.90;;;;;;5070432;28;20406;-74
2023/06/02 01:00:00;;;;;;;0.40;0.40;;;9.70;99.90;;;;;;5070336;28;20009;-74
2023/06/02 01:02:26;;;;;;;0.50;0.50;;;9.70;99.90;;;;;;5069842;28;20044;-74
2023/06/02 01:04:53;;;;;;;0.70;0.70;;;9.60;99.90;;;;;;5070640;28;20490;-74
2023/06/02 01:07:23;;;;;;;0.40;0.40;;;9.60;99.90;;;;;;5070432;28;20557;-73
2023/06/02 01:09:58;;;;;;;0.50;0.50;;;9.60;99.90;;;;;;5053803;28;20052;-73
2023/06/02 01:12:24;;;;;;;0.50;0.50;;;9.60;99.90;;;;;;5069840;28;20827;-74
2023/06/02 01:14:50;;;;;;;0.50;0.50;;;9.60;99.90;;;;;;5053432;28;20049;-74
2023/06/02 01:17:17;;;;;;;0.75;0.50;;;9.60;99.90;;;;;;5070099;28;20378;-73
2023/06/02 01:19:46;;;;;;;0.43;0.43;;;9.60;99.90;;;;;;5107422;28;20070;-74
2023/06/02 01:22:19;;;;;;;0.40;0.40;;;9.60;99.90;;;;;;5107359;28;20040;-73
2023/06/02 01:24:48;;;;;;;0.43;0.43;;;9.60;99.90;;;;;;5088733;28;20393;-73
2023/06/02 01:27:14;;;;;;;1.00;1.00;;;9.60;99.90;;;;;;5069853;28;20041;-74
2023/06/02 01:29:40;;;;;;;;;;;9.60;99.90;;;;;;5053346;28;20047;-73
2023/06/02 01:32:18;;;;;;;0.60;0.60;;;9.60;99.90;;;;;;5053124;28;20118;-75
2023/06/02 01:34:50;;;;;;;0.40;0.40;;;9.60;99.90;;;;;;5069675;28;20101;-74
2023/06/02 01:37:17;;;;;;;0.40;0.40;;;9.60;99.90;;;;;;5069960;28;20402;-73
2023/06/02 01:39:45;;;;;;;0.40;0.40;;;9.60;99.90;;;;;;5069656;28;20047;-74
2023/06/02 01:42:11;;;;;;;0.88;0.88;;;9.60;99.90;;;;;;5072623;28;20481;-74
2023/06/02 01:44:37;;;;;;;;;;;9.60;99.90;;;;;;5097428;28;20052;-75
2023/06/02 01:47:03;;;;;;;0.47;0.47;;;9.60;99.90;;;;;;5052535;28;20030;-74
2023/06/02 01:49:28;;;;;;;0.30;0.30;;;9.60;99.90;;;;;;5069118;28;20048;-73
2023/06/02 01:51:54;;;;;;;0.45;0.45;;;9.70;99.90;;;;;;5069635;28;20044;-73
2023/06/02 01:54:21;;;;;;;0.40;0.40;;;9.70;99.90;;;;;;5069708;28;20401;-74
2023/06/02 01:56:47;;;;;;;0.57;0.57;;;9.70;99.90;;;;;;5069649;28;20091;-73
2023/06/02 01:59:13;;;;;;;0.60;0.60;;;9.70;99.90;;;;;;5069437;28;20462;-73
2023/06/02 02:01:40;;;;;;;0.35;0.35;;;9.70;99.90;;;;;;5069124;28;20051;-73
2023/06/02 02:04:06;;;;;;;0.30;0.30;;;9.80;99.90;;;;;;5069235;28;20087;-74
2023/06/02 02:06:32;;;;;;;;;;;9.80;99.90;;;;;;5069515;28;20075;-74
2023/06/02 02:08:59;;;;;;;0.50;0.50;;;9.80;99.90;;;;;;5052603;28;19975;-74
2023/06/02 02:11:28;;;;;;;0.30;0.30;;;9.80;99.90;;;;;;5068770;28;20102;-73
2023/06/02 02:13:54;;;;;;;0.55;0.55;;;9.70;99.90;;;;;;5072320;28;20043;-73
2023/06/02 02:16:21;;;;;;;0.70;0.70;;;9.80;99.90;;;;;;5071951;28;20093;-73
2023/06/02 02:18:47;;;;;;;0.25;0.25;;;9.80;99.90;;;;;;5089402;28;20059;-74
2023/06/02 02:21:13;;;;;;;0.30;0.30;;;9.80;99.90;;;;;;5106382;28;20410;-74
2023/06/02 02:23:39;;;;;;;0.45;0.45;;;9.80;99.90;;;;;;5089037;28;20102;-73
2023/06/02 02:26:05;;;;;;;0.55;0.55;;;9.80;99.90;;;;;;5059998;28;20482;-74
2023/06/02 02:28:31;;;;;;;0.30;0.30;;;9.80;99.90;;;;;;5068385;28;20492;-74
2023/06/02 02:30:57;;;;;;;0.35;0.35;;;9.90;99.90;;;;;;5068660;28;20479;-74
2023/06/02 02:33:23;;;;;;;9.55;0.50;;;9.80;99.90;;;;;;5068168;28;20097;-75
2023/06/02 02:35:49;;;;;;;0.30;0.30;;;9.80;99.90;;;;;;5068779;28;20076;-75
2023/06/02 02:38:15;;;;;;;0.52;0.52;;;9.90;99.90;;;;;;5068586;28;20053;-74
2023/06/02 02:40:41;;;;;;;0.30;0.30;;;9.90;99.90;;;;;;5051671;28;20040;-75
2023/06/02 02:43:06;;;;;;;0.50;0.50;;;9.90;99.90;;;;;;5062628;28;20054;-75
2023/06/02 02:45:32;;;;;;;1.00;1.00;;;9.90;99.90;;;;;;5038164;28;20098;-74
2023/06/02 02:47:58;;;;;;;0.35;0.35;;;9.80;99.90;;;;;;5050933;28;20063;-75
2023/06/02 02:50:25;;;;;;;0.40;0.40;;;9.90;99.90;;;;;;5068540;28;20197;-74
2023/06/02 02:52:51;;;;;;;1.05;1.05;;;9.90;99.90;;;;;;5068591;28;20131;-75
2023/06/02 02:55:17;;;;;;;0.47;0.47;;;9.90;99.90;;;;;;5068364;28;20148;-74
2023/06/02 02:57:43;;;;;;;0.40;0.40;;;10.00;99.90;;;;;;5068164;28;20048;-75
2023/06/02 03:00:09;;;;;;;0.57;0.57;;;9.90;99.90;;;;;;5051854;28;20127;-75
2023/06/02 03:02:36;;;;;;;0.40;0.40;;;10.00;99.90;;;;;;5068058;28;20040;-74
2023/06/02 03:05:03;;;;;;;0.57;0.57;;;10.00;99.90;;;;;;5052135;28;20390;-74
2023/06/02 03:07:29;;;;;;;1.02;0.52;;;10.00;99.90;;;;;;5068199;28;20125;-75
2023/06/02 03:09:55;;;;;;;0.32;0.32;;;10.00;99.90;;;;;;5069766;28;20109;-75
2023/06/02 03:12:21;;;;;;;0.38;0.38;;;9.90;99.90;;;;;;5105298;28;20048;-74
2023/06/02 03:14:46;;;;;;;0.90;0.90;;;10.00;99.90;;;;;;5092990;28;20135;-74
2023/06/02 03:17:13;;;;;;;0.40;0.40;;;10.00;99.90;;;;;;5051139;28;20044;-75
2023/06/02 03:19:38;;;;;;;;;;;10.00;99.90;;;;;;5068119;28;20036;-74
2023/06/02 03:22:04;;;;;;;0.32;0.32;;;10.00;99.90;;;;;;5067409;28;20365;-74
2023/06/02 03:24:30;;;;;;;;;;;10.00;99.90;;;;;;5067839;28;20045;-74
2023/06/02 03:26:56;;;;;;;0.50;0.50;;;10.10;99.90;;;;;;5067717;28;20418;-74
2023/06/02 03:29:22;;;;;;;0.63;0.63;;;10.10;99.90;;;;;;5068371;28;20051;-74
2023/06/02 03:31:51;;;;;;;0.32;0.32;;;10.10;99.90;;;;;;5051177;28;20055;-74
2023/06/02 03:34:17;;;;;;;0.30;0.30;;;10.10;99.90;;;;;;5068161;28;20043;-75
2023/06/02 03:36:43;;;;;;;0.50;0.50;;;10.10;99.90;;;;;;5067625;28;20397;-74
2023/06/02 03:39:09;;;;;;;;;;;10.30;99.90;;;;;;5052139;28;20205;-74
2023/06/02 03:41:36;;;;;;;0.30;0.30;;;10.20;99.90;;;;;;5067301;28;19971;-74
2023/06/02 03:44:03;;;;;;;0.40;0.40;;;10.20;99.90;;;;;;5081858;28;20036;-74
2023/06/02 03:46:29;;;;;;;0.57;0.57;;;10.20;99.90;;;;;;5067714;28;20056;-74
2023/06/02 03:48:56;;;;;;;0.40;0.40;;;10.20;99.90;;;;;;5067701;28;20056;-74
2023/06/02 03:51:21;;;;;;;;;;;10.30;99.90;;;;;;5068112;28;20044;-75
2023/06/02 03:53:49;;;;;;;0.50;0.50;;;10.30;99.90;;;;;;5068131;28;19923;-74
2023/06/02 03:56:15;;;;;;;0.32;0.32;;;10.30;99.90;;;;;;5051476;28;20043;-75
2023/06/02 03:58:40;;;;;;;0.30;0.30;;;10.30;99.90;;;;;;5069119;28;20049;-75
2023/06/02 04:01:06;;;;;;;0.30;0.30;;;10.40;99.90;;;;;;5055111;28;20043;-74
2023/06/02 04:03:37;;;;;;;0.43;0.43;;;10.40;99.90;;;;;;5071075;28;20048;-74
2023/06/02 04:06:06;;;;;;;0.35;0.35;;;10.40;99.90;;;;;;5072094;28;20409;-74
2023/06/02 04:08:32;;;;;;;0.47;0.47;;;10.40;99.90;;;;;;5108989;28;20052;-75
2023/06/02 04:10:58;;;;;;;;;;;10.40;99.90;;;;;;5109144;28;20122;-74
2023/06/02 04:13:24;;;;;;;0.30;0.30;;;10.50;99.90;;;;;;5090984;28;20003;-75
2023/06/02 04:15:50;;;;;;;0.55;0.55;;;10.50;99.90;;;;;;5071445;28;20136;-74
2023/06/02 04:18:15;;;;;;;0.68;0.68;;;10.50;99.90;;;;;;5071610;28;20084;-74
2023/06/02 04:20:41;;;;;;;1.08;1.08;;;10.50;99.90;;;;;;5070870;28;20037;-74
2023/06/02 04:23:07;;;;;;;0.30;0.30;;;10.50;99.90;;;;;;5059436;28;20079;-74
2023/06/02 04:25:32;;;;;;;0.40;0.40;;;10.60;99.90;;;;;;5058620;28;20123;-74
2023/06/02 04:27:58;;;;;;;0.45;0.45;;;10.60;99.90;;;;;;5071162;28;20169;-74
2023/06/02 04:30:24;;;;;;;0.30;0.30;;;10.60;99.90;;;;;;5071229;28;20469;-75
2023/06/02 04:32:50;;;;;;;0.40;0.40;;;10.70;99.90;;;;;;5070935;28;20052;-74
2023/06/02 04:35:16;;;;;;;0.40;0.40;;;10.70;99.90;;;;;;5071221;28;20154;-74
2023/06/02 04:37:44;;;;;;;0.30;0.30;;;10.70;99.90;;;;;;5071246;28;20080;-74
2023/06/02 04:40:10;;;;;;;0.40;0.40;;;10.70;99.90;;;;;;5054551;28;20052;-74
2023/06/02 04:42:38;;;;;;;1.60;1.60;;;10.80;99.90;;;;;;5077465;28;20043;-74
2023/06/02 04:45:11;;;;;;;0.30;0.30;;;10.80;99.90;;;;;;5061182;28;20042;-75
2023/06/02 04:47:38;;;;;;;0.35;0.35;;;10.80;99.90;;;;;;5070665;28;20374;-75
2023/06/02 04:50:06;;;;;;;0.40;0.40;;;10.80;99.90;;;;;;5071069;28;20080;-74
2023/06/02 04:52:32;;;;;;;0.45;0.45;;;10.90;99.90;;;;;;5070328;28;20044;-74
2023/06/02 04:54:58;;;;;;;0.50;0.50;;;10.90;99.90;;;;;;5071003;28;20052;-74
2023/06/02 04:57:23;;;;;;;0.38;0.38;;;10.90;99.90;;;;;;5071925;28;20051;-75
2023/06/02 04:59:49;;;;;;;0.47;0.47;;;11.00;99.90;;;;;;5070165;28;20046;-75
2023/06/02 05:02:15;;;;;;;0.50;0.50;;;11.00;99.90;;;;;;5070327;28;20044;-75
2023/06/02 05:04:42;;;;;;;0.30;0.30;;;11.10;99.90;;;;;;5107733;28;20097;-74
2023/06/02 05:07:08;;;;;;;0.20;0.20;;;11.10;99.90;;;;;;5090918;28;20083;-74
2023/06/02 05:09:34;;;;;;;0.40;0.40;;;11.20;99.90;;;;;;5073081;28;20082;-74
2023/06/02 05:12:00;;;;;;;0.30;0.30;;;11.20;99.90;;;;;;5090026;28;20052;-74
2023/06/02 05:14:26;;;;;;;0.40;0.40;;;11.30;99.90;;;;;;5098340;28;20378;-74
2023/06/02 05:16:54;;;;;;;0.40;0.40;;;11.30;99.90;;;;;;5069713;28;20123;-74
2023/06/02 05:19:19;;;;;;;0.80;0.80;;;11.40;99.90;;;;;;5059212;28;20045;-74
2023/06/02 05:21:45;;;;;;;0.50;0.50;;;11.50;99.90;;;;;;5049641;28;20123;-74
2023/06/02 05:24:11;;;;;;;0.30;0.30;;;11.50;99.90;;;;;;5033945;28;20565;-74
2023/06/02 05:26:37;;;;;;;0.68;0.68;;;11.50;99.90;;;;;;5049998;28;20037;-74
2023/06/02 05:29:03;;;;;;;0.77;0.77;;;11.60;99.90;;;;;;5051036;28;20041;-74
2023/06/02 05:31:28;;;;;;;0.38;0.38;;;11.70;99.90;;;;;;5050337;28;20460;-74
2023/06/02 05:33:54;;;;;;;0.90;0.77;;;11.80;99.90;;;;;;5056552;28;20036;-74
2023/06/02 05:36:20;;;;;;;0.40;0.40;;;11.90;99.90;;;;;;5053491;28;20182;-74
2023/06/02 05:38:45;;;;;;;0.30;0.30;;;12.00;99.90;;;;;;5069746;28;20094;-74
2023/06/02 05:41:11;;;;;;;0.57;0.57;;;12.10;99.90;;;;;;5053438;28;20044;-74
2023/06/02 05:43:37;;;;;;;0.30;0.30;;;12.20;99.90;;;;;;5067346;28;20051;-74
2023/06/02 05:46:03;;;;;;;0.93;0.60;;;12.30;99.90;;;;;;5070126;28;20056;-74
2023/06/02 05:48:28;;;;;;;;;;;12.70;99.90;;;;;;5070452;28;20136;-74
2023/06/02 05:50:54;;;;;;;0.40;0.40;;;12.50;99.90;;;;;;5069579;28;19917;-74
2023/06/02 05:53:19;;;;;;;0.40;0.40;;;12.50;99.90;;;;;;5069971;28;20133;-74
2023/06/02 05:55:45;;;;;;;;;;;12.60;99.90;;;;;;5053213;28;20063;-74
2023/06/02 05:58:11;;;;;;;0.30;0.30;;;12.60;99.90;;;;;;5052838;28;19943;-74
2023/06/02 06:00:38;;;;;;;0.20;0.20;;;12.70;99.90;;;;;;5070231;28;20105;-73
2023/06/02 06:03:04;;;;;;;0.30;0.30;;;12.70;99.90;;;;;;5106993;28;20101;-74
2023/06/02 06:05:30;;;;;;;0.22;0.22;;;12.80;99.90;;;;;;5073222;28;20040;-74
2023/06/02 06:07:56;;;;;;;;;;;12.80;99.90;;;;;;5107233;28;20050;-74
2023/06/02 06:10:22;;;;;;;0.40;0.40;;;12.90;99.90;;;;;;5089545;28;20276;-73
2023/06/02 06:12:48;;;;;;;0.30;0.30;;;12.90;99.90;;;;;;5089275;28;20047;-74
2023/06/02 06:15:13;;;;;;;;;;;13.00;99.90;;;;;;5082473;28;20052;-74
2023/06/02 06:17:50;;;;;;;0.30;0.30;;;13.00;99.90;;;;;;5049160;28;19928;-74
2023/06/02 06:20:15;;;;;;;;;;;13.10;99.90;;;;;;5049627;28;20394;-74
2023/06/02 06:22:42;;;;;;;0.22;0.22;;;13.20;99.90;;;;;;5047631;28;19917;-75
2023/06/02 06:25:08;;;;;;;0.50;0.50;;;13.20;99.90;;;;;;5017180;28;20041;-74
2023/06/02 06:27:34;;;;;;;0.30;0.30;;;13.30;99.90;;;;;;5049718;28;20135;-74
2023/06/02 06:30:00;;;;;;;0.43;0.43;;;13.40;99.90;;;;;;5048810;28;20460;-74
2023/06/02 06:32:25;;;;;;;0.20;0.20;;;13.50;99.90;;;;;;5049048;28;20045;-74
2023/06/02 06:34:51;;;;;;;0.30;0.30;;;13.60;99.90;;;;;;5058369;28;20036;-74
2023/06/02 06:37:17;;;;;;;;;;;13.70;99.90;;;;;;5052479;28;20044;-75
2023/06/02 06:39:43;;;;;;;0.32;0.32;;;13.80;99.90;;;;;;5068847;28;19916;-74
2023/06/02 06:42:08;;;;;;;0.20;0.20;;;13.90;99.90;;;;;;5071544;28;20051;-74
2023/06/02 06:44:34;;;;;;;0.20;0.20;;;14.00;99.90;;;;;;5063673;28;20075;-74
2023/06/02 06:47:00;;;;;;;1.10;0.75;;;14.20;99.90;;;;;;5068870;28;20686;-75
2023/06/02 06:49:25;;;;;;;;;;;14.40;99.90;;;;;;5069686;28;20059;-74
2023/06/02 06:51:51;;;;;;;0.30;0.30;;;14.60;99.90;;;;;;5068587;28;20387;-74
2023/06/02 06:54:17;;;;;;;0.50;0.40;;;14.80;99.90;;;;;;5052282;28;20127;-75
2023/06/02 06:56:45;;;;;;;0.30;0.30;;;14.90;99.90;;;;;;5035401;28;20044;-75
2023/06/02 06:59:11;;;;;;;0.20;0.20;;;15.10;99.90;;;;;;5069342;28;20358;-74
2023/06/02 07:01:38;;;;;;;5.65;1.15;;;15.30;99.90;;;;;;5052351;28;20040;-75
2023/06/02 07:04:03;;;;;;;;;;;15.50;99.90;;;;;;5068437;28;20044;-74
2023/06/02 07:06:29;;;;;;;0.75;0.75;;;15.60;99.90;;;;;;5068398;28;20387;-74
2023/06/02 07:08:55;;;;;;;;;;;15.50;99.90;;;;;;5052236;28;20056;-74
2023/06/02 07:11:20;;;;;;;0.20;0.20;;;15.50;99.90;;;;;;5061423;28;19921;-75
2023/06/02 07:13:46;;;;;;;;;;;15.50;99.90;;;;;;5035528;28;20046;-74
2023/06/02 07:16:12;;;;;;;0.20;0.20;;;15.40;99.90;;;;;;5068994;28;19920;-74
2023/06/02 07:18:37;;;;;;;;;;;15.40;99.90;;;;;;5069026;28;20097;-74
2023/06/02 07:21:03;;;;;;;0.20;0.20;;;15.50;99.90;;;;;;5051918;28;19941;-75
2023/06/02 07:23:29;;;;;;;0.30;0.30;;;15.60;99.90;;;;;;5035291;28;20389;-75
2023/06/02 07:25:55;;;;;;;0.52;0.52;;;15.80;99.90;;;;;;5040449;28;20090;-74
2023/06/02 07:28:20;;;;;;;0.17;0.17;;;15.70;99.90;;;;;;5048419;28;20486;-74
2023/06/02 07:30:51;;;;;;;;;;;15.60;99.90;;;;;;5048292;28;20075;-74
2023/06/02 07:33:20;;;;;;;0.75;0.30;;;15.70;99.90;;;;;;5051528;28;19921;-74
2023/06/02 07:35:46;;;;;;;0.30;0.30;;;15.80;99.90;;;;;;5072469;28;20542;-74
2023/06/02 07:38:12;;;;;;;0.20;0.20;;;15.70;99.90;;;;;;5072573;28;20040;-75
2023/06/02 07:40:37;;;;;;;;;;;15.50;99.90;;;;;;5072869;28;20663;-74
2023/06/02 07:43:03;;;;;;;0.20;0.20;;;15.60;99.90;;;;;;5082730;28;19930;-75
2023/06/02 07:45:29;;;;;;;0.35;0.35;;;15.70;99.90;;;;;;5093401;28;20036;-74
2023/06/02 07:47:56;;;;;;;0.30;0.30;;;15.80;99.90;;;;;;5071933;28;20060;-74
2023/06/02 07:50:22;;;;;;;0.20;0.20;;;15.90;99.90;;;;;;5072514;28;20493;-74
2023/06/02 07:52:48;;;;;;;0.10;0.10;;;15.90;99.90;;;;;;5052822;28;20095;-75
2023/06/02 07:55:13;;;;;;;;;;;16.00;99.90;;;;;;5076703;28;20538;-75
2023/06/02 07:57:39;;;;;;;0.30;0.30;;;16.10;99.90;;;;;;5092176;28;19935;-75
2023/06/02 08:00:15;;;;;;;;;;;16.10;99.90;;;;;;5109628;28;20466;-75
2023/06/02 08:02:48;;;;;;;0.22;0.22;;;16.10;99.90;;;;;;5092510;28;19919;-74
2023/06/02 08:05:16;;;;;;;0.30;0.30;;;16.30;99.90;;;;;;5075249;28;20131;-75
2023/06/02 08:07:43;;;;;;;0.20;0.20;;;16.30;99.90;;;;;;5100996;28;20037;-74
2023/06/02 08:10:10;;;;;;;0.22;0.22;;;16.20;99.90;;;;;;5071849;28;20058;-74
2023/06/02 08:12:36;;;;;;;0.13;0.13;;;16.20;99.90;;;;;;5071979;28;20146;-74
2023/06/02 08:15:02;;;;;;;0.20;0.20;;;16.30;99.90;;;;;;5071976;28;20037;-74
2023/06/02 08:17:31;;;;;;;0.30;0.30;;;16.30;99.90;;;;;;5071512;28;20054;-75
2023/06/02 08:20:01;;;;;;;0.40;0.40;;;16.40;99.90;;;;;;5071404;28;20050;-74
2023/06/02 08:22:28;;;;;;;0.20;0.20;;;16.60;99.90;;;;;;5071348;28;20044;-74
2023/06/02 08:24:54;;;;;;;0.20;0.20;;;16.60;99.90;;;;;;5071058;28;20048;-75
2023/06/02 08:27:21;;;;;;;;;;;16.80;99.90;;;;;;5072070;28;20059;-74
2023/06/02 08:29:49;;;;;;;0.28;0.28;;;16.80;99.90;;;;;;5071468;28;19924;-75
2023/06/02 08:32:17;;;;;;;0.20;0.20;;;16.80;99.90;;;;;;5071980;28;20374;-75
2023/06/02 08:34:44;;;;;;;0.20;0.20;;;17.00;99.90;;;;;;5071358;28;20087;-74
2023/06/02 08:37:16;;;;;;;0.28;0.28;;;17.10;99.90;;;;;;5070761;28;20127;-75
2023/06/02 08:39:42;;;;;;;0.20;0.20;;;17.10;99.90;;;;;;5054386;28;20037;-75
2023/06/02 08:42:10;;;;;;;1.58;1.30;;;17.10;99.90;;;;;;5073426;28;20044;-75
2023/06/02 08:44:36;;;;;;;0.30;0.30;;;17.20;99.90;;;;;;5081369;28;20051;-74
2023/06/02 08:47:02;;;;;;;;;;;17.30;99.90;;;;;;5071829;28;20386;-75
2023/06/02 08:49:29;;;;;;;0.20;0.20;;;17.30;99.90;;;;;;5071113;28;19920;-75
2023/06/02 08:52:05;;;;;;;0.20;0.20;;;17.20;99.90;;;;;;5070860;28;20029;-74
2023/06/02 08:54:31;;;;;;;0.25;0.25;;;17.20;99.90;;;;;;5071237;28;20028;-75
2023/06/02 08:57:00;;;;;;;;;;;17.20;99.90;;;;;;5090771;28;20466;-75
2023/06/02 08:59:26;;;;;;;0.20;0.20;;;17.20;99.90;;;;;;5090995;28;19916;-75
2023/06/02 09:01:52;;;;;;;0.17;0.17;;;17.20;99.90;;;;;;5108445;28;20150;-74
2023/06/02 09:04:18;;;;;;;0.20;0.20;;;17.20;99.90;;;;;;5080319;28;20071;-74
2023/06/02 09:06:43;;;;;;;0.40;0.40;;;17.20;99.90;;;;;;5054484;28;20477;-75
2023/06/02 09:09:09;;;;;;;;;;;17.20;99.90;;;;;;5071971;28;20474;-74
2023/06/02 09:11:35;;;;;;;0.20;0.20;;;17.20;99.90;;;;;;5054737;28;20011;-74
2023/06/02 09:14:16;;;;;;;;;;;17.10;99.90;;;;;;5070481;28;20393;-74
2023/06/02 09:16:41;;;;;;;0.10;0.10;;;17.10;99.90;;;;;;5070694;28;19923;-74
2023/06/02 09:19:07;;;;;;;0.32;0.32;;;17.00;99.90;;;;;;5053383;28;20053;-75
2023/06/02 09:21:33;;;;;;;;;;;17.10;99.90;;;;;;5054509;28;20098;-75
2023/06/02 09:24:01;;;;;;;0.30;0.30;;;17.20;99.90;;;;;;5070636;28;20341;-75
2023/06/02 09:26:30;;;;;;;0.22;0.22;;;17.40;99.90;;;;;;5070225;28;20040;-74
2023/06/02 09:29:13;;;;;;;0.40;0.40;;;17.50;99.90;;;;;;5070797;28;20043;-74
2023/06/02 09:31:45;;;;;;;0.40;0.40;;;17.40;99.90;;;;;;5071284;28;20071;-74
2023/06/02 09:34:13;;;;;;;0.20;0.20;;;17.40;99.90;;;;;;5070257;28;20055;-74
2023/06/02 09:36:40;;;;;;;0.57;0.57;;;17.50;99.90;;;;;;5070249;28;20136;-74
2023/06/02 09:39:07;;;;;;;0.20;0.20;;;17.60;99.90;;;;;;5069842;28;20070;-75
2023/06/02 09:41:33;;;;;;;0.13;0.13;;;17.70;99.90;;;;;;5070255;28;20044;-75
2023/06/02 09:43:59;;;;;;;;;;;17.80;99.90;;;;;;5084338;28;20389;-74
2023/06/02 09:46:25;;;;;;;0.17;0.17;;;17.70;99.90;;;;;;5069945;28;19974;-74
2023/06/02 09:48:55;;;;;;;0.25;0.25;;;17.70;99.90;;;;;;5033396;28;20044;-74
2023/06/02 09:51:25;;;;;;;0.80;0.80;;;17.70;99.90;;;;;;5059561;28;20036;-75
2023/06/02 09:53:52;;;;;;;0.40;0.40;;;17.70;99.90;;;;;;5080365;28;20039;-75
2023/06/02 09:56:26;;;;;;;0.20;0.20;;;17.90;99.90;;;;;;5069061;28;20048;-75
2023/06/02 09:58:54;;;;;;;0.20;0.20;;;18.00;99.90;;;;;;5069775;28;20166;-75
2023/06/02 10:01:20;;;;;;;0.20;0.20;;;18.10;99.90;;;;;;5051608;28;20057;-74
2023/06/02 10:03:45;;;;;;;;;;;18.10;99.90;;;;;;5049507;28;20041;-74
2023/06/02 10:06:32;;;;;;;0.25;0.25;;;17.90;98.80;;;;;;5049448;28;19923;-75
2023/06/02 10:09:19;;;;;;;0.20;0.20;;;18.00;98.60;;;;;;5050042;28;20368;-75
2023/06/02 10:12:05;;;;;;;0.20;0.20;;;18.20;95.60;;;;;;5049839;28;20056;-75
2023/06/02 10:14:52;;;;;;;0.28;0.28;;;18.40;94.20;;;;;;5058748;28;20056;-75
2023/06/02 10:17:49;;;;;;;0.20;0.20;;;18.40;93.40;;;;;;5069452;28;20462;-75
2023/06/02 10:20:23;;;;;;;0.40;0.40;;;18.50;93.20;;;;;;5069149;28;20401;-75
2023/06/02 10:23:13;;;;;;;0.22;0.22;;;18.70;97.40;;;;;;5069098;28;20047;-74
2023/06/02 10:26:09;;;;;;;0.40;0.40;;;18.70;88.30;;;;;;5060365;28;20519;-75
2023/06/02 10:28:35;;;;;;;0.20;0.20;;;18.70;92.40;;;;;;5048988;28;20047;-75
2023/06/02 10:31:08;;;;;;;0.30;0.30;;;18.80;92.80;;;;;;5048590;28;20134;-74
2023/06/02 10:33:47;;;;;;;0.20;0.20;;;18.90;93.70;;;;;;5036129;28;20040;-74
2023/06/02 10:36:13;;;;;;;0.63;0.63;;;18.90;95.40;;;;;;5068615;28;20049;-75
2023/06/02 10:38:39;;;;;;;0.20;0.20;;;18.70;96.10;;;;;;5069000;28;20149;-74
2023/06/02 10:41:06;;;;;;;0.20;0.20;;;18.60;94.70;;;;;;5068372;28;20385;-75
2023/06/02 10:43:35;;;;;;;0.20;0.20;;;18.60;96.90;;;;;;5066220;28;20048;-75
2023/06/02 10:46:21;;;;;;;0.30;0.30;;;18.40;96.10;;;;;;5052545;28;20041;-75
2023/06/02 10:48:48;;;;;;;0.20;0.20;;;18.30;96.40;;;;;;5072909;28;20098;-75
2023/06/02 10:51:14;;;;;;;0.15;0.15;;;18.30;98.30;;;;;;5071349;28;20073;-74
2023/06/02 10:54:07;;;;;;;0.20;0.20;;;18.30;98.80;;;;;;5080924;28;20044;-75
2023/06/02 10:56:35;;;;;;;0.43;0.43;;;18.40;99.90;;;;;;5068670;28;20405;-74
2023/06/02 10:59:02;;;;;;;0.30;0.30;;;18.30;99.90;;;;;;5068355;28;20123;-74
2023/06/02 11:02:00;;;;;;;0.20;0.20;;;18.30;98.30;;;;;;5068594;28;20059;-74
2023/06/02 11:04:38;;;;;;;0.30;0.30;;;18.20;99.70;;;;;;5067168;28;20051;-75
2023/06/02 11:07:25;;;;;;;0.40;0.40;;;18.30;99.50;;;;;;5068063;28;20371;-74
2023/06/02 11:09:53;;;;;;;0.20;0.20;;;18.50;99.90;;;;;;5068428;28;20497;-75
2023/06/02 11:12:20;;;;;;;0.20;0.20;;;18.60;99.90;;;;;;5068303;28;20036;-75
2023/06/02 11:15:02;;;;;;;0.20;0.20;;;18.70;99.90;;;;;;5068545;28;20106;-75
2023/06/02 11:17:34;;;;;;;0.20;0.20;;;18.80;99.90;;;;;;5067766;28;20127;-75
2023/06/02 11:20:04;;;;;;;0.75;0.70;;;18.90;99.90;;;;;;5068379;28;20048;-75
2023/06/02 11:22:31;;;;;;;0.20;0.20;;;19.00;99.90;;;;;;5068036;28;20084;-75
2023/06/02 11:24:59;;;;;;;0.10;0.10;;;18.90;99.90;;;;;;5051476;28;20040;-75
2023/06/02 11:27:42;;;;;;;0.70;0.70;;;18.80;99.90;;;;;;5051261;28;20398;-75
2023/06/02 11:30:16;;;;;;;0.20;0.20;;;18.80;99.90;;;;;;5051058;28;20055;-75
2023/06/02 11:32:45;;;;;;;0.63;0.63;;;18.90;99.90;;;;;;5068436;28;20353;-74
2023/06/02 11:35:11;;;;;;;0.30;0.30;;;19.00;99.90;;;;;;5067671;28;20385;-75
2023/06/02 11:37:40;;;;;;;0.20;0.20;;;19.20;99.90;;;;;;5067878;28;20052;-75
2023/06/02 11:40:07;;;;;;;0.28;0.28;;;19.30;99.90;;;;;;5051251;28;20045;-74
2023/06/02 11:42:43;;;;;;;0.20;0.20;;;19.50;99.90;;;;;;5074049;28;20097;-75
2023/06/02 11:45:20;;;;;;;0.38;0.38;;;19.50;99.90;;;;;;5073572;28;20128;-75
2023/06/02 11:47:47;;;;;;;0.30;0.30;;;19.30;99.90;;;;;;5067916;28;20270;-75
2023/06/02 11:50:17;;;;;;;0.20;0.20;;;19.40;99.90;;;;;;5067757;28;20049;-75
2023/06/02 11:52:43;;;;;;;0.60;0.45;;;19.60;99.90;;;;;;5058785;28;20060;-75
2023/06/02 11:55:10;;;;;;;0.30;0.30;;;20.00;99.90;;;;;;5047581;28;20052;-75
2023/06/02 11:57:36;;;;;;;0.30;0.30;;;20.10;99.90;;;;;;5048062;28;20529;-75
2023/06/02 12:00:15;;;;;;;0.60;0.60;;;20.10;99.90;;;;;;5031321;28;20386;-74
2023/06/02 12:02:43;;;;;;;0.30;0.30;;;20.00;99.90;;;;;;5048112;28;20052;-74
2023/06/02 12:05:28;;;;;;;0.20;0.20;;;19.90;99.90;;;;;;5047378;28;20041;-75
2023/06/02 12:07:54;;;;;;;0.57;0.57;;;19.80;99.90;;;;;;5031391;28;20079;-75
2023/06/02 12:10:20;;;;;;;0.55;0.55;;;19.60;99.90;;;;;;5047596;28;20044;-74
2023/06/02 12:12:46;;;;;;;1.90;1.00;;;19.70;99.90;;;;;;5047596;28;20048;-75
2023/06/02 12:15:15;;;;;;;0.63;0.63;;;19.50;99.90;;;;;;5063043;28;20156;-75
2023/06/02 12:17:45;;;;;;;0.25;0.25;;;19.50;99.90;;;;;;5068137;28;20044;-75
2023/06/02 12:20:11;;;;;;;0.25;0.25;;;20.10;99.90;;;;;;5054102;28;20068;-75
2023/06/02 12:22:54;;;;;;;0.15;0.15;;;20.40;99.90;;;;;;5071967;28;20555;-75
2023/06/02 12:25:20;;;;;;;0.40;0.40;;;20.40;99.90;;;;;;5070961;28;20049;-75
2023/06/02 12:27:47;;;;;;;0.22;0.22;;;20.40;99.90;;;;;;5071663;28;20497;-75
2023/06/02 12:30:14;;;;;;;0.30;0.30;;;20.30;99.90;;;;;;5070901;28;20048;-75
2023/06/02 12:32:39;;;;;;;0.28;0.28;;;20.20;99.90;;;;;;5054763;28;20131;-75
2023/06/02 12:35:06;;;;;;;0.28;0.28;;;20.10;99.90;;;;;;5072114;28;20198;-75
2023/06/02 12:37:31;;;;;;;0.63;0.63;;;20.20;99.90;;;;;;5054558;28;20044;-75
2023/06/02 12:39:57;;;;;;;0.30;0.30;;;20.20;99.90;;;;;;5056769;28;20093;-75
2023/06/02 12:42:23;;;;;;;;;;;20.10;99.90;;;;;;5104066;28;20045;-75
2023/06/02 12:44:49;;;;;;;0.55;0.55;;;20.00;99.90;;;;;;5054752;28;20404;-75
2023/06/02 12:47:16;;;;;;;0.38;0.38;;;20.40;99.90;;;;;;5070476;28;20501;-75
2023/06/02 12:49:42;;;;;;;0.40;0.40;;;20.60;99.90;;;;;;5071200;28;20439;-75
2023/06/02 12:52:07;;;;;;;0.10;0.10;;;20.50;99.90;;;;;;5070888;28;20048;-76
2023/06/02 12:54:33;;;;;;;0.40;0.40;;;20.40;99.90;;;;;;5054364;28;20184;-75
2023/06/02 12:56:58;;;;;;;;;;;20.50;99.90;;;;;;5054921;28;20040;-75
2023/06/02 12:59:24;;;;;;;0.40;0.40;;;20.60;99.90;;;;;;5053682;28;19917;-75
2023/06/02 13:01:50;;;;;;;0.20;0.20;;;20.50;99.90;;;;;;5070625;28;20060;-75